Time;durP1;ratioP1;P1;durP2;ratioP2;P2;SDS_P1;SDS_P2;PMS_P1;PMS_P2;Temp;Humidity;BMP_temperature;BMP_pressure;BME280_temperature;BME280_humidity;BME280_pressure;Samples;Min_cycle;Max_cycle;Signal;HPM_P1;HPM_P2
2021/12/21 00:00:45;;;;;;;6.03;3.55;;;;;;;3.45;53.65;99877.25;5090348;28;20020;-39
2021/12/21 00:03:13;;;;;;;8.20;3.50;;;;;;;3.28;52.75;99878.94;5088861;28;20024;-39
2021/12/21 00:05:39;;;;;;;5.47;3.30;;;;;;;3.20;52.59;99875.41;5090384;28;20097;-39
2021/12/21 00:08:07;;;;;;;8.07;3.40;;;;;;;3.29;52.93;99880.59;5090593;28;20020;-39
2021/12/21 00:10:33;;;;;;;4.95;3.17;;;;;;;2.97;54.81;99889.03;5091035;28;20024;-39
2021/12/21 00:15:39;;;;;;;5.45;3.58;;;;;;;3.22;52.27;99892.69;5090800;28;20016;-39
2021/12/21 00:23:29;;;;;;;5.57;3.30;;;;;;;2.83;53.58;99908.75;5090704;28;20084;-38
2021/12/21 00:25:47;;;;;;;4.78;3.47;;;;;;;2.71;53.78;99908.16;5090525;28;20068;-38
2021/12/21 00:28:12;;;;;;;5.95;3.67;;;;;;;2.88;54.20;99909.16;5091099;28;20016;-38
2021/12/21 00:30:38;;;;;;;6.85;3.30;;;;;;;3.10;55.63;99918.41;5090761;28;20035;-39
2021/12/21 00:33:03;;;;;;;7.00;3.50;;;;;;;3.13;53.21;99914.63;5090704;28;20073;-38
2021/12/21 00:35:29;;;;;;;6.82;3.75;;;;;;;2.90;53.54;99920.34;5090287;28;20020;-38
2021/12/21 00:37:56;;;;;;;5.55;3.22;;;;;;;2.74;53.19;99917.53;5090628;28;20016;-38
2021/12/21 00:40:21;;;;;;;4.68;3.25;;;;;;;2.54;53.60;99911.59;5090180;28;20031;-38
2021/12/21 00:42:46;;;;;;;5.90;3.45;;;;;;;2.71;52.74;99917.84;5089028;28;20024;-38
2021/12/21 00:45:12;;;;;;;5.07;3.25;;;;;;;2.88;53.46;99892.56;5090525;28;20020;-38
2021/12/21 00:47:41;;;;;;;5.18;3.30;;;;;;;3.19;54.31;99916.66;5090757;28;20375;-38
2021/12/21 00:50:16;;;;;;;5.13;3.15;;;;;;;3.17;51.85;99913.34;5090568;28;20417;-38
2021/12/21 00:52:41;;;;;;;5.40;3.53;;;;;;;3.22;53.39;99910.25;5090400;28;20035;-38
2021/12/21 00:55:07;;;;;;;5.22;3.35;;;;;;;3.28;52.18;99925.47;5090232;28;20020;-38
2021/12/21 00:57:32;;;;;;;4.78;2.92;;;;;;;3.01;52.23;99915.81;5090487;28;20024;-38
2021/12/21 00:59:58;;;;;;;7.25;3.05;;;;;;;2.93;52.28;99913.94;5090280;28;20127;-38
2021/12/21 01:02:23;;;;;;;5.22;3.05;;;;;;;3.13;51.74;99915.47;5088679;28;20028;-38
2021/12/21 01:04:50;;;;;;;4.47;2.80;;;;;;;3.13;52.20;99915.47;5090318;28;20023;-38
2021/12/21 01:07:23;;;;;;;5.57;2.97;;;;;;;2.83;51.27;99918.47;5089978;28;20127;-38
2021/12/21 01:18:03;;;;;;;4.55;3.00;;;;;;;3.00;52.02;99917.63;5089324;28;20085;-38
2021/12/21 01:20:37;;;;;;;4.40;2.72;;;;;;;2.88;52.20;99922.28;5090240;28;20353;-38
2021/12/21 01:25:57;;;;;;;6.60;3.40;;;;;;;3.13;51.05;99920.72;5090291;28;20050;-38
2021/12/21 01:28:44;;;;;;;5.10;2.90;;;;;;;3.27;51.22;99924.59;5094161;28;20024;-38
2021/12/21 01:36:17;;;;;;;4.05;2.80;;;;;;;3.06;50.95;99927.53;5094028;28;20020;-38
2021/12/21 01:38:54;;;;;;;5.68;3.15;;;;;;;3.30;49.53;99924.31;5093841;28;20031;-38
2021/12/21 01:41:31;;;;;;;4.82;2.42;;;;;;;3.17;50.38;99921.25;5093577;28;20460;-38
2021/12/21 01:52:23;;;;;;;3.17;2.20;;;;;;;2.73;50.89;99913.28;5091041;28;20137;-38
2021/12/21 01:54:48;;;;;;;5.63;2.40;;;;;;;2.85;51.68;99921.75;5091151;28;20028;-38
2021/12/21 01:57:14;;;;;;;4.72;2.40;;;;;;;3.01;49.22;99914.03;5082139;28;20043;-38
2021/12/21 01:59:40;;;;;;;3.22;2.30;;;;;;;3.05;49.43;99915.41;5078286;28;20472;-38
2021/12/21 02:02:08;;;;;;;3.40;2.30;;;;;;;3.17;50.09;99912.53;5093852;28;20128;-38
2021/12/21 02:04:37;;;;;;;4.65;2.35;;;;;;;3.25;49.66;99923.94;5093622;28;20039;-37
2021/12/21 02:07:03;;;;;;;3.45;2.10;;;;;;;3.10;48.32;99918.41;5092439;28;20142;-39
2021/12/21 02:09:37;;;;;;;4.63;2.20;;;;;;;2.82;49.69;99922.06;5093506;28;20023;-38
2021/12/21 02:12:04;;;;;;;4.53;2.47;;;;;;;2.67;50.19;99914.69;5093028;28;20028;-38
2021/12/21 02:14:29;;;;;;;3.58;2.35;;;;;;;2.59;50.40;99919.88;5091783;28;20035;-38
2021/12/21 02:17:23;;;;;;;4.03;2.20;;;;;;;2.76;51.17;99922.66;5092973;28;20016;-38
2021/12/21 02:22:39;;;;;;;4.82;2.88;;;;;;;3.01;51.33;99923.72;5092710;28;20028;-38
2021/12/21 02:25:31;;;;;;;3.72;2.40;;;;;;;3.16;50.67;99922.25;5092614;28;20028;-38
2021/12/21 02:28:10;;;;;;;3.38;2.38;;;;;;;2.97;49.71;99915.31;5092934;28;20067;-38
2021/12/21 02:30:37;;;;;;;3.45;2.05;;;;;;;2.93;50.09;99917.44;5093287;28;20122;-38
2021/12/21 02:33:03;;;;;;;4.13;2.40;;;;;;;2.79;51.43;99919.75;5092905;28;20463;-38
2021/12/21 02:35:29;;;;;;;3.60;2.03;;;;;;;2.58;50.82;99912.13;5092831;28;20028;-38
2021/12/21 02:37:54;;;;;;;3.47;2.22;;;;;;;2.59;50.64;99919.88;5092881;28;20082;-38
2021/12/21 02:40:19;;;;;;;3.42;2.60;;;;;;;2.38;51.10;99920.13;5092698;28;20020;-38
2021/12/21 02:42:45;;;;;;;5.15;2.60;;;;;;;2.67;50.26;99924.38;5092535;28;20020;-38
2021/12/21 02:45:11;;;;;;;4.28;2.70;;;;;;;2.50;51.12;99926.81;5092501;28;20101;-38
2021/12/21 02:47:37;;;;;;;4.82;2.70;;;;;;;2.33;52.94;99928.41;5092703;28;20082;-37
2021/12/21 02:50:03;;;;;;;3.55;2.58;;;;;;;2.31;52.22;99926.94;5092485;28;20032;-38
2021/12/21 02:52:29;;;;;;;5.97;2.70;;;;;;;2.52;52.35;99931.94;5092272;28;20112;-38
2021/12/21 02:54:54;;;;;;;5.28;2.78;;;;;;;2.42;52.54;99929.38;5092141;28;20024;-38
2021/12/21 02:57:19;;;;;;;3.75;2.47;;;;;;;2.63;53.25;99931.72;5092533;28;20081;-39
2021/12/21 02:59:45;;;;;;;3.45;2.40;;;;;;;2.43;52.65;99936.25;5091862;28;20446;-38
2021/12/21 03:02:10;;;;;;;3.58;2.45;;;;;;;2.48;52.74;99941.09;5090585;28;20057;-38
2021/12/21 03:04:36;;;;;;;4.57;2.47;;;;;;;2.46;53.28;99933.34;5092136;28;20028;-38
2021/12/21 03:09:46;;;;;;;3.05;2.40;;;;;;;2.10;53.89;99941.09;5092101;28;20525;-38
2021/12/21 03:14:40;;;;;;;5.03;2.28;;;;;;;2.20;52.50;99943.69;5092301;28;20039;-38
2021/12/21 03:17:06;;;;;;;4.43;2.70;;;;;;;2.37;53.99;99955.22;5091930;28;20032;-38
2021/12/21 03:19:31;;;;;;;3.92;2.45;;;;;;;2.25;53.14;99956.41;5092168;28;20028;-38
2021/12/21 03:21:57;;;;;;;4.53;2.63;;;;;;;2.57;52.70;99950.72;5091929;28;20023;-38
2021/12/21 03:24:22;;;;;;;4.03;2.58;;;;;;;2.61;52.18;99949.44;5091861;28;20035;-38
2021/12/21 03:26:50;;;;;;;3.75;2.38;;;;;;;2.76;52.08;99954.19;5091618;28;20406;-38
2021/12/21 03:29:15;;;;;;;5.07;2.83;;;;;;;2.75;53.14;99956.00;5091666;28;20468;-38
2021/12/21 03:31:41;;;;;;;3.60;2.60;;;;;;;2.33;53.57;99953.88;5091448;28;20024;-38
2021/12/21 03:34:06;;;;;;;4.75;2.53;;;;;;;2.57;54.42;99953.34;5091558;28;20020;-38
2021/12/21 03:36:32;;;;;;;5.07;2.88;;;;;;;2.53;52.19;99952.81;5091555;28;20449;-38
2021/12/21 03:39:09;;;;;;;4.72;2.85;;;;;;;2.68;52.78;99957.56;5091413;28;20027;-38
2021/12/21 03:41:36;;;;;;;5.53;3.10;;;;;;;2.96;53.25;99954.91;5091744;28;20101;-38
2021/12/21 03:44:03;;;;;;;3.92;2.50;;;;;;;2.82;51.80;99958.84;5091182;28;20134;-38
2021/12/21 03:46:31;;;;;;;3.53;2.70;;;;;;;2.58;52.02;99962.06;5091011;28;20020;-38
2021/12/21 03:48:56;;;;;;;4.72;3.00;;;;;;;2.61;52.15;99957.34;5090520;28;20039;-38
2021/12/21 03:51:22;;;;;;;4.75;2.55;;;;;;;2.68;53.28;99968.88;5090966;28;20090;-38
2021/12/21 03:53:48;;;;;;;7.20;3.13;;;;;;;2.67;54.00;99969.88;5091137;28;20097;-38
2021/12/21 03:59:14;;;;;;;4.55;2.70;;;;;;;2.24;52.95;99975.75;5048359;28;20024;-37
2021/12/21 04:01:40;;;;;;;3.67;2.75;;;;;;;2.49;52.03;99971.63;5082053;28;20039;-38
2021/12/21 04:04:05;;;;;;;3.47;2.65;;;;;;;2.64;52.64;99971.97;5090883;28;20468;-38
2021/12/21 04:06:31;;;;;;;3.70;2.63;;;;;;;2.41;52.23;99989.91;5090500;28;20522;-38
2021/12/21 04:08:56;;;;;;;4.32;3.20;;;;;;;2.54;52.24;99979.91;5090914;28;20035;-39
2021/12/21 04:11:22;;;;;;;3.60;2.72;;;;;;;2.58;52.30;99983.88;5090911;28;20027;-38
2021/12/21 04:13:47;;;;;;;9.30;3.00;;;;;;;2.63;52.65;99986.91;5090972;28;20365;-39
2021/12/21 04:16:13;;;;;;;3.92;2.80;;;;;;;2.58;52.27;99988.31;5090633;28;20348;-39
2021/12/21 04:18:39;;;;;;;5.63;2.80;;;;;;;2.20;53.09;99996.22;5090760;28;20101;-39
2021/12/21 04:21:06;;;;;;;7.78;2.90;;;;;;;2.32;53.09;99996.84;5090766;28;20085;-39
2021/12/21 04:23:32;;;;;;;3.95;2.92;;;;;;;2.42;52.22;99999.44;5090956;28;20024;-39
2021/12/21 04:25:57;;;;;;;4.80;3.10;;;;;;;2.81;51.83;99996.63;5090760;28;20067;-38
2021/12/21 04:28:23;;;;;;;3.58;2.83;;;;;;;2.54;51.85;100003.56;5090926;28;20493;-39
2021/12/21 04:30:48;;;;;;;4.13;3.17;;;;;;;2.60;53.80;100008.22;5090642;28;20459;-39
2021/12/21 04:33:14;;;;;;;25.25;12.90;;;;;;;2.69;52.12;100002.09;5090505;28;20024;-44
2021/12/21 04:35:39;;;;;;;19.92;9.90;;;;;;;2.32;52.64;100015.25;5090361;28;20020;-38
2021/12/21 04:38:26;;;;;;;24.73;10.57;;;;;;;2.50;52.80;100020.59;5090398;28;20024;-39
2021/12/21 04:40:59;;;;;;;6.03;3.05;;;;;;;2.20;54.15;100017.22;5090665;28;20098;-39
2021/12/21 04:43:24;;;;;;;5.53;2.95;;;;;;;2.40;54.26;100019.78;5090359;28;20129;-39
2021/12/21 04:45:50;;;;;;;6.38;3.58;;;;;;;2.46;52.41;100008.72;5090093;28;20024;-39
2021/12/21 04:48:15;;;;;;;7.47;4.55;;;;;;;2.45;52.85;100012.28;5090253;28;20028;-39
2021/12/21 04:50:41;;;;;;;5.03;2.95;;;;;;;2.08;53.42;100013.13;5088726;28;20016;-39
2021/12/21 04:53:06;;;;;;;5.53;3.30;;;;;;;2.20;53.55;100011.97;5090010;28;20020;-39
2021/12/21 04:55:32;;;;;;;3.88;2.83;;;;;;;2.07;53.43;100003.56;5090399;28;20089;-38
2021/12/21 04:57:57;;;;;;;4.55;3.13;;;;;;;2.17;55.12;100025.41;5090263;28;20062;-39
2021/12/21 05:00:23;;;;;;;4.97;3.13;;;;;;;2.07;53.05;100025.38;5089959;28;20116;-38
2021/12/21 05:02:48;;;;;;;4.55;2.92;;;;;;;2.46;52.54;100029.72;5093053;28;20034;-38
2021/12/21 05:05:14;;;;;;;4.35;2.88;;;;;;;2.49;52.35;100034.69;5094049;28;20135;-39
2021/12/21 05:07:42;;;;;;;5.93;3.15;;;;;;;2.11;52.70;100032.03;5094456;28;20461;-38
2021/12/21 05:10:09;;;;;;;9.43;4.32;;;;;;;2.19;52.72;100039.22;5094618;28;20020;-38
2021/12/21 05:12:38;;;;;;;7.35;3.47;;;;;;;2.33;52.37;100033.47;5094097;28;20529;-38
2021/12/21 05:15:04;;;;;;;4.72;2.80;;;;;;;2.63;52.31;100044.72;5094795;28;20024;-38
2021/12/21 05:17:29;;;;;;;4.88;3.00;;;;;;;2.60;51.61;100049.44;5094425;28;20432;-39
2021/12/21 05:19:55;;;;;;;4.05;2.90;;;;;;;2.23;52.15;100048.44;5094310;28;20124;-38
2021/12/21 05:22:21;;;;;;;5.00;2.78;;;;;;;2.26;51.96;100052.59;5094155;28;20027;-39
2021/12/21 05:24:47;;;;;;;5.45;3.05;;;;;;;2.38;51.46;100051.47;5094056;28;20111;-37
2021/12/21 05:27:13;;;;;;;6.40;3.70;;;;;;;2.23;51.86;100060.72;5093961;28;20030;-38
2021/12/21 05:29:38;;;;;;;7.03;3.30;;;;;;;2.32;51.59;100050.22;5093642;28;20024;-38
2021/12/21 05:32:05;;;;;;;10.15;3.95;;;;;;;2.49;51.34;100064.41;5093645;28;20494;-39
2021/12/21 05:34:30;;;;;;;16.45;6.78;;;;;;;2.30;52.70;100065.31;5092364;28;20031;-38
2021/12/21 05:36:56;;;;;;;10.38;4.47;;;;;;;2.24;52.67;100071.09;5093652;28;20537;-37
2021/12/21 05:39:25;;;;;;;6.82;3.17;;;;;;;2.26;52.03;100081.47;5091993;28;20046;-38
2021/12/21 05:41:52;;;;;;;5.40;2.83;;;;;;;2.44;51.34;100084.22;5091683;28;20028;-38
2021/12/21 05:44:19;;;;;;;4.70;3.20;;;;;;;2.59;56.19;100085.41;5091545;28;20035;-38
2021/12/21 05:46:45;;;;;;;7.32;4.03;;;;;;;2.71;51.35;100084.25;5092098;28;20024;-38
2021/12/21 05:49:11;;;;;;;3.75;2.30;;;;;;;2.26;52.21;100084.91;5078878;28;20020;-38
2021/12/21 05:51:36;;;;;;;4.45;2.58;;;;;;;2.21;52.34;100092.41;5072560;28;20024;-38
2021/12/21 05:54:02;;;;;;;4.90;2.88;;;;;;;2.31;51.81;100085.34;5077152;28;20149;-38
2021/12/21 05:56:27;;;;;;;4.95;2.92;;;;;;;2.59;51.09;100090.66;5092204;28;20028;-39
2021/12/21 05:58:53;;;;;;;5.07;2.60;;;;;;;2.45;52.08;100085.84;5091847;28;20089;-37
2021/12/21 06:01:18;;;;;;;29.63;11.77;;;;;;;2.69;51.80;100094.06;5090788;28;20058;-39
2021/12/21 06:03:44;;;;;;;6.82;3.70;;;;;;;2.37;52.13;100088.38;5090222;28;20020;-39
2021/12/21 06:06:13;;;;;;;5.80;3.20;;;;;;;2.74;51.84;100094.47;5089700;28;20419;-39
2021/12/21 06:08:39;;;;;;;7.53;3.53;;;;;;;2.83;52.66;100102.47;5089141;28;20036;-39
2021/12/21 06:11:06;;;;;;;5.95;3.40;;;;;;;2.73;51.03;100098.06;5088651;28;20030;-38
2021/12/21 06:26:48;;;;;;;7.78;3.97;;;;;;;2.72;52.93;100127.13;5089253;28;20032;-38
2021/12/21 06:29:14;;;;;;;7.88;3.47;;;;;;;2.81;51.95;100133.31;5089697;28;20031;-39
2021/12/21 06:31:40;;;;;;;7.47;3.60;;;;;;;3.07;51.04;100131.69;5091127;28;20059;-39
2021/12/21 06:34:05;;;;;;;7.13;3.90;;;;;;;2.94;50.12;100133.84;5091237;28;20044;-39
2021/12/21 06:36:31;;;;;;;8.30;3.38;;;;;;;3.42;50.74;100134.56;5090783;28;20026;-39
2021/12/21 06:38:57;;;;;;;18.02;8.43;;;;;;;3.11;49.38;100140.13;5091101;28;20443;-39
2021/12/21 06:41:22;;;;;;;12.23;5.40;;;;;;;2.84;50.58;100146.19;5090749;28;20048;-39
2021/12/21 06:43:48;;;;;;;3.95;2.90;;;;;;;2.76;49.64;100159.19;5090779;28;20024;-39
2021/12/21 06:53:56;;;;;;;10.38;5.93;;;;;;;3.00;50.09;100159.53;5090933;28;20571;-38
2021/12/21 06:56:21;;;;;;;8.70;4.65;;;;;;;3.15;47.60;100157.28;5090818;28;20020;-37
2021/12/21 06:58:47;;;;;;;8.77;3.30;;;;;;;4.89;68.95;100171.84;5090591;28;20467;-38
2021/12/21 07:01:15;;;;;;;5.30;3.17;;;;;;;4.36;46.38;100162.28;5090276;28;20035;-51
2021/12/21 07:03:41;;;;;;;5.20;3.00;;;;;;;3.65;46.87;100167.38;5089980;28;20079;-51
2021/12/21 07:06:07;;;;;;;5.45;2.95;;;;;;;3.96;47.17;100174.97;5047899;28;1218224;-51
2021/12/21 07:08:42;;;;;;;8.35;3.20;;;;;;;3.70;46.42;100169.59;5091217;28;20028;-51
2021/12/21 07:11:17;;;;;;;5.18;3.17;;;;;;;3.74;47.33;100178.84;5090947;28;20458;-49
2021/12/21 07:19:11;;;;;;;5.60;2.72;;;;;;;3.72;46.42;100173.72;5090283;28;20051;-49
2021/12/21 07:21:37;;;;;;;5.30;3.08;;;;;;;3.12;47.74;100176.81;5089234;28;20096;-49
2021/12/21 07:24:03;;;;;;;4.97;3.28;;;;;;;3.36;47.89;100177.25;5089584;28;20028;-48
2021/12/21 07:26:28;;;;;;;4.78;2.88;;;;;;;3.41;47.34;100172.38;5090384;28;20020;-50
2021/12/21 07:28:54;;;;;;;6.95;2.67;;;;;;;2.90;48.08;100179.78;5090593;28;20031;-49
2021/12/21 07:31:19;;;;;;;9.75;2.72;;;;;;;3.33;47.83;100178.34;5090108;28;20444;-49
2021/12/21 07:33:45;;;;;;;4.78;2.67;;;;;;;3.58;47.50;100178.66;5090417;28;20073;-49
2021/12/21 07:36:10;;;;;;;4.35;2.55;;;;;;;4.91;56.04;100188.34;5090388;28;20024;-49
2021/12/21 07:38:36;;;;;;;4.35;2.47;;;;;;;5.62;54.22;100186.38;5090296;28;20032;-50
2021/12/21 07:41:02;;;;;;;3.92;2.20;;;;;;;6.56;47.01;100194.94;5089792;28;20047;-49
2021/12/21 07:43:27;;;;;;;3.60;2.15;;;;;;;5.97;48.19;100197.72;5088761;28;20114;-52
2021/12/21 07:45:53;;;;;;;5.25;2.60;;;;;;;5.82;48.90;100202.78;5087565;28;20032;-49
2021/12/21 07:48:18;;;;;;;8.45;2.10;;;;;;;6.03;46.61;100205.00;5086473;28;20032;-51
2021/12/21 07:50:46;;;;;;;4.72;2.20;;;;;;;7.12;44.18;100205.59;5087344;28;20500;-50
2021/12/21 07:53:15;;;;;;;3.20;2.22;;;;;;;6.54;41.63;100221.56;5089288;28;20062;-52
2021/12/21 07:55:41;;;;;;;2.83;2.00;;;;;;;5.85;47.18;100221.75;5086585;28;20462;-50
2021/12/21 07:58:06;;;;;;;3.60;2.28;;;;;;;5.43;43.63;100219.97;5088804;28;20023;-51
2021/12/21 08:00:32;;;;;;;7.82;3.50;;;;;;;5.86;46.04;100222.59;5089803;28;20381;-52
2021/12/21 08:02:57;;;;;;;5.40;2.03;;;;;;;5.66;40.89;100220.22;5090115;28;20497;-51
2021/12/21 08:05:23;;;;;;;5.43;2.38;;;;;;;5.00;42.86;100227.00;5090150;28;20113;-50
2021/12/21 08:08:08;;;;;;;3.58;2.10;;;;;;;4.97;42.59;100229.94;5090254;28;20535;-51
2021/12/21 08:10:51;;;;;;;3.75;2.10;;;;;;;5.08;42.92;100231.47;5088300;28;20391;-49
2021/12/21 08:13:17;;;;;;;5.70;2.28;;;;;;;5.59;42.19;100232.41;5088821;28;20038;-49
2021/12/21 08:15:43;;;;;;;3.28;2.22;;;;;;;5.45;41.77;100233.00;5089182;28;20024;-52
2021/12/21 08:18:08;;;;;;;3.35;2.25;;;;;;;5.09;42.03;100233.97;5089031;28;20499;-50
2021/12/21 08:20:35;;;;;;;5.95;2.65;;;;;;;5.61;40.75;100229.59;5089229;28;20027;-50
2021/12/21 08:23:00;;;;;;;7.95;4.22;;;;;;;5.48;41.32;100241.44;5089313;28;20089;-52
2021/12/21 08:25:27;;;;;;;6.63;3.30;;;;;;;5.57;40.70;100242.28;5088874;28;20032;-50
2021/12/21 08:27:56;;;;;;;5.53;2.75;;;;;;;6.20;39.61;100235.72;5088952;28;20442;-52
2021/12/21 08:30:22;;;;;;;4.88;2.53;;;;;;;5.99;39.24;100241.47;5089167;28;20023;-48
2021/12/21 08:32:47;;;;;;;4.20;2.65;;;;;;;6.55;39.00;100241.72;5089381;28;20545;-49
2021/12/21 08:35:13;;;;;;;8.63;3.35;;;;;;;6.90;38.30;100246.84;5088576;28;20391;-51
2021/12/21 08:37:44;;;;;;;4.53;2.90;;;;;;;6.23;38.31;100210.81;5089145;28;20032;-49
2021/12/21 08:40:11;;;;;;;5.88;2.95;;;;;;;7.19;38.14;100246.28;5089997;28;20028;-49
2021/12/21 08:42:38;;;;;;;4.10;2.67;;;;;;;6.84;37.71;100245.69;5089466;28;20081;-48
2021/12/21 08:45:06;;;;;;;4.97;2.72;;;;;;;7.21;36.54;100249.59;5089553;28;20085;-49
2021/12/21 08:47:38;;;;;;;6.90;2.70;;;;;;;6.69;37.74;100258.75;5089169;28;20113;-50
2021/12/21 08:50:05;;;;;;;5.40;3.00;;;;;;;7.47;35.75;100261.78;5089563;28;20050;-50
2021/12/21 08:52:31;;;;;;;3.85;2.67;;;;;;;7.28;35.84;100255.88;5089590;28;20032;-52
2021/12/21 08:54:57;;;;;;;4.30;2.53;;;;;;;7.09;36.31;100254.41;5089397;28;20020;-51
2021/12/21 08:57:22;;;;;;;4.80;2.55;;;;;;;7.29;35.64;100256.69;5089430;28;20035;-50
2021/12/21 08:59:48;;;;;;;6.32;2.72;;;;;;;7.49;35.46;100252.66;5089298;28;20082;-51
2021/12/21 09:02:13;;;;;;;5.15;2.60;;;;;;;7.22;35.83;100253.91;5089627;28;20059;-51
2021/12/21 09:04:40;;;;;;;4.28;2.40;;;;;;;7.08;36.50;100260.69;5089899;28;20150;-49
2021/12/21 09:07:05;;;;;;;3.30;2.50;;;;;;;7.27;36.03;100248.91;5089247;28;20048;-49
2021/12/21 09:09:31;;;;;;;7.32;2.90;;;;;;;7.43;35.05;100242.75;5089194;28;20174;-51
2021/12/21 09:11:57;;;;;;;3.58;2.35;;;;;;;7.22;35.68;100238.03;5089598;28;20028;-49
2021/12/21 09:14:22;;;;;;;5.63;2.58;;;;;;;7.35;35.65;100238.31;5089376;28;20024;-50
2021/12/21 09:16:49;;;;;;;5.95;2.72;;;;;;;8.38;34.66;100247.06;5089427;28;20016;-49
2021/12/21 09:19:16;;;;;;;6.88;2.53;;;;;;;7.29;35.71;100233.69;5089065;28;20107;-48
2021/12/21 09:21:41;;;;;;;4.57;2.80;;;;;;;7.43;36.40;100248.88;5089195;28;20032;-49
2021/12/21 09:24:07;;;;;;;4.38;2.60;;;;;;;7.49;36.51;100242.06;5089339;28;20517;-49
2021/12/21 09:26:32;;;;;;;2.97;2.10;;;;;;;7.21;37.08;100231.06;5088950;28;20025;-49
2021/12/21 09:28:58;;;;;;;4.95;2.22;;;;;;;7.60;36.66;100231.09;5089263;28;20035;-52
2021/12/21 09:31:23;;;;;;;7.30;2.10;;;;;;;6.99;37.52;100230.78;5089517;28;20020;-50
2021/12/21 09:33:49;;;;;;;3.15;1.92;;;;;;;7.51;36.91;100223.34;5089104;28;20024;-48
2021/12/21 09:36:15;;;;;;;3.08;2.10;;;;;;;7.95;36.37;100230.75;5089619;28;20522;-50
2021/12/21 09:38:41;;;;;;;6.00;2.35;;;;;;;7.51;37.10;100228.66;5089005;28;20375;-49
2021/12/21 09:41:06;;;;;;;3.03;1.67;;;;;;;6.36;38.64;100223.53;5089208;28;20403;-50
2021/12/21 09:43:32;;;;;;;4.63;1.90;;;;;;;6.53;38.38;100189.97;5088596;28;20031;-51
2021/12/21 09:45:57;;;;;;;5.85;2.28;;;;;;;7.13;37.68;100221.31;5088578;28;20047;-49
2021/12/21 09:48:25;;;;;;;3.53;2.38;;;;;;;6.93;38.12;100226.16;5091174;28;20032;-49
2021/12/21 09:50:50;;;;;;;2.95;2.08;;;;;;;7.34;38.47;100223.41;5074705;28;20035;-49
2021/12/21 09:53:16;;;;;;;4.20;2.30;;;;;;;7.63;35.96;100236.06;5092261;28;20031;-49
2021/12/21 09:55:41;;;;;;;4.60;2.05;;;;;;;7.10;37.41;100226.97;5092691;28;20028;-49
2021/12/21 09:58:07;;;;;;;4.32;2.17;;;;;;;6.89;37.43;100226.66;5092468;28;20032;-49
2021/12/21 10:00:33;;;;;;;3.05;2.10;;;;;;;6.79;37.27;100225.00;5092334;28;20105;-51
2021/12/21 10:03:07;;;;;;;3.28;2.15;;;;;;;6.92;37.78;100226.34;5091916;28;20533;-51
2021/12/21 10:05:36;;;;;;;4.70;2.30;;;;;;;6.99;37.91;100209.63;5091524;28;20445;-52
2021/12/21 10:08:19;;;;;;;3.03;2.17;;;;;;;7.28;37.45;100221.44;5092609;28;20085;-50
2021/12/21 10:10:50;;;;;;;2.75;1.80;;;;;;;7.35;36.76;100214.47;5072242;28;20032;-50
2021/12/21 10:13:18;;;;;;;6.18;2.03;;;;;;;7.85;35.54;100211.63;5079941;28;20036;-52
2021/12/21 10:15:46;;;;;;;6.13;2.30;;;;;;;7.51;35.97;100207.47;5092379;28;20032;-50
2021/12/21 10:18:12;;;;;;;6.13;2.10;;;;;;;7.48;40.91;100216.56;5091718;28;20050;-53
2021/12/21 10:20:46;;;;;;;2.83;1.90;;;;;;;7.86;39.36;100214.06;5091979;28;20472;-51
2021/12/21 10:23:18;;;;;;;4.15;2.20;;;;;;;8.88;37.52;100218.31;5091844;28;20028;-50
2021/12/21 10:25:51;;;;;;;4.30;1.92;;;;;;;8.21;36.08;100217.19;5091360;28;20044;-52
2021/12/21 10:28:40;;;;;;;5.75;2.05;;;;;;;8.11;35.76;100206.81;5091549;28;20114;-50
2021/12/21 10:31:08;;;;;;;2.92;1.85;;;;;;;9.67;32.73;100210.63;5091502;28;20028;-52
2021/12/21 10:33:34;;;;;;;3.15;2.00;;;;;;;8.85;33.28;100194.78;5089781;28;20166;-52
2021/12/21 10:36:00;;;;;;;3.70;1.65;;;;;;;7.79;34.13;100202.53;5091346;28;20024;-52
2021/12/21 10:38:37;;;;;;;5.85;2.30;;;;;;;7.58;34.49;100201.31;5090292;28;20040;-50
2021/12/21 10:41:34;;;;;;;3.25;1.90;;;;;;;7.38;34.55;100198.22;5090656;28;20024;-50
2021/12/21 10:44:00;;;;;;;5.22;2.10;;;;;;;7.61;34.13;100187.69;5090416;28;20534;-49
2021/12/21 10:46:29;;;;;;;3.05;1.75;;;;;;;7.14;34.74;100187.72;5090466;28;20032;-50
2021/12/21 10:49:06;;;;;;;3.33;1.90;;;;;;;6.69;35.55;100191.81;5088783;28;20031;-53
2021/12/21 10:51:32;;;;;;;6.30;2.92;;;;;;;6.58;35.86;100191.13;5090793;28;20450;-52
2021/12/21 10:53:57;;;;;;;4.43;2.33;;;;;;;6.25;36.79;100185.88;5091539;28;20089;-52
2021/12/21 10:56:23;;;;;;;3.25;2.20;;;;;;;6.38;36.81;100201.25;5081465;28;20025;-49
2021/12/21 10:58:48;;;;;;;4.05;2.50;;;;;;;6.61;36.34;100204.03;5069994;28;20028;-52
2021/12/21 11:01:17;;;;;;;6.85;2.08;;;;;;;6.48;36.09;100198.44;5089283;28;20028;-51
2021/12/21 11:03:49;;;;;;;2.17;1.77;;;;;;;5.99;36.68;100196.56;5091278;28;20103;-51
2021/12/21 11:06:16;;;;;;;4.00;2.08;;;;;;;6.06;36.94;100196.75;5090533;28;20448;-53
2021/12/21 11:08:47;;;;;;;3.90;2.15;;;;;;;6.39;36.71;100199.41;5090766;28;20047;-52
2021/12/21 11:11:37;;;;;;;5.05;2.20;;;;;;;7.18;35.48;100197.81;5090899;28;20043;-53
2021/12/21 11:14:02;;;;;;;3.17;2.00;;;;;;;6.95;34.92;100195.06;5089193;28;20062;-52
2021/12/21 11:16:41;;;;;;;2.83;1.88;;;;;;;6.69;35.76;100202.38;5090734;28;20062;-53
2021/12/21 11:19:07;;;;;;;2.85;1.80;;;;;;;6.73;34.85;100206.34;5090900;28;20020;-50
2021/12/21 11:21:33;;;;;;;2.60;1.80;;;;;;;6.41;35.76;100208.81;5090353;28;20510;-50
2021/12/21 11:24:12;;;;;;;5.25;1.77;;;;;;;6.46;35.22;100209.16;5090468;28;20039;-52
2021/12/21 11:26:38;;;;;;;2.58;1.77;;;;;;;6.06;35.40;100191.47;5090351;28;20028;-52
2021/12/21 11:29:06;;;;;;;3.58;1.70;;;;;;;5.92;35.40;100190.25;5090773;28;20620;-51
2021/12/21 11:31:35;;;;;;;3.50;1.55;;;;;;;6.02;35.04;100190.16;5090720;28;20024;-52
2021/12/21 11:34:00;;;;;;;3.80;1.95;;;;;;;6.87;34.44;100175.72;5089040;28;20028;-50
2021/12/21 11:39:10;;;;;;;3.13;1.75;;;;;;;6.19;35.49;100178.59;5091208;28;20043;-52
2021/12/21 11:41:36;;;;;;;2.95;2.33;;;;;;;6.14;35.56;100188.81;5089038;28;20407;-52
2021/12/21 11:44:21;;;;;;;2.50;1.90;;;;;;;6.22;35.27;100183.53;5091029;28;20020;-51
2021/12/21 11:46:55;;;;;;;2.40;1.67;;;;;;;5.90;36.14;100188.75;5072673;28;20499;-52
2021/12/21 11:49:42;;;;;;;2.90;1.73;;;;;;;5.97;35.81;100182.69;5090623;28;20493;-50
2021/12/21 11:52:15;;;;;;;4.80;2.10;;;;;;;6.06;35.38;100180.91;5070587;28;20023;-54
2021/12/21 11:54:45;;;;;;;2.22;1.48;;;;;;;5.97;35.44;100192.44;5071049;28;20024;-50
2021/12/21 11:57:11;;;;;;;4.05;1.90;;;;;;;6.29;35.17;100180.25;5090578;28;20102;-52
2021/12/21 11:59:37;;;;;;;6.18;1.90;;;;;;;6.26;34.88;100190.16;5090659;28;20055;-51
2021/12/21 12:02:04;;;;;;;5.00;2.05;;;;;;;6.42;37.13;100188.53;5090539;28;20450;-52
2021/12/21 12:04:29;;;;;;;2.45;1.83;;;;;;;7.87;33.34;100186.59;5090432;28;20047;-52
2021/12/21 12:06:57;;;;;;;4.38;2.03;;;;;;;6.49;35.35;100184.19;5090571;28;20052;-53
2021/12/21 12:09:28;;;;;;;5.00;2.13;;;;;;;6.19;36.10;100194.44;5090901;28;20039;-50
2021/12/21 12:12:07;;;;;;;4.35;2.00;;;;;;;6.12;36.45;100190.81;5090373;28;20069;-53
2021/12/21 12:14:35;;;;;;;7.68;2.25;;;;;;;6.16;36.27;100202.69;5089999;28;20035;-51
2021/12/21 12:17:05;;;;;;;4.18;2.10;;;;;;;5.64;38.54;100198.44;5090029;28;20024;-52
2021/12/21 12:19:35;;;;;;;4.00;2.17;;;;;;;5.52;39.22;100207.66;5089603;28;20027;-50
2021/12/21 12:22:08;;;;;;;3.75;2.38;;;;;;;5.47;39.15;100202.81;5089351;28;20063;-50
2021/12/21 12:24:47;;;;;;;4.15;2.95;;;;;;;5.10;39.98;100200.50;5089376;28;20035;-51
2021/12/21 12:27:40;;;;;;;5.25;2.80;;;;;;;5.46;40.48;100211.75;5087848;28;20021;-52
2021/12/21 12:30:11;;;;;;;5.55;2.67;;;;;;;5.71;39.70;100214.44;5088270;28;20035;-52
2021/12/21 12:32:36;;;;;;;6.43;4.00;;;;;;;6.15;38.71;100222.19;5088066;28;20118;-51
2021/12/21 12:35:23;;;;;;;4.20;2.78;;;;;;;5.41;40.60;100219.31;5089426;28;20107;-52
2021/12/21 12:37:53;;;;;;;4.90;2.70;;;;;;;5.59;40.29;100218.38;5088727;28;20036;-53
2021/12/21 12:40:20;;;;;;;6.90;3.33;;;;;;;5.62;40.69;100218.06;5088987;28;20055;-51
2021/12/21 12:42:59;;;;;;;6.47;3.53;;;;;;;5.71;40.50;100227.66;5089065;28;20020;-50
2021/12/21 12:45:33;;;;;;;9.88;4.72;;;;;;;5.37;41.21;100228.53;5089360;28;20016;-54
2021/12/21 12:47:58;;;;;;;6.72;3.47;;;;;;;5.47;41.52;100226.59;5089463;28;20103;-53
2021/12/21 12:50:28;;;;;;;9.40;3.50;;;;;;;5.53;41.72;100227.75;5089241;28;20022;-52
2021/12/21 12:52:57;;;;;;;;;;;;;;;5.36;41.90;100229.50;5089809;28;20047;-52